Time;durP1;ratioP1;P1;durP2;ratioP2;P2;SDS_P1;SDS_P2;PMS_P1;PMS_P2;Temp;Humidity;BMP_temperature;BMP_pressure;BME280_temperature;BME280_humidity;BME280_pressure;Samples;Min_cycle;Max_cycle;Signal;HPM_P1;HPM_P2
2024/04/12 00:01:14;;;;;;;4.35;1.42;;;19.30;82.50;;;;;;5498853;26;20026;-58
2024/04/12 00:03:41;;;;;;;5.80;1.30;;;19.30;82.50;;;;;;5491528;26;19998;-58
2024/04/12 00:06:17;;;;;;;4.00;1.50;;;19.30;82.60;;;;;;5498465;25;20609;-58
2024/04/12 00:08:47;;;;;;;5.25;1.50;;;19.30;82.60;;;;;;5494440;26;20005;-57
2024/04/12 00:11:24;;;;;;;5.50;1.60;;;19.30;82.60;;;;;;5492482;26;20002;-58
2024/04/12 00:13:52;;;;;;;3.35;1.30;;;19.30;82.60;;;;;;5522005;25;20597;-58
2024/04/12 00:16:24;;;;;;;4.40;1.45;;;19.30;82.60;;;;;;5534307;25;20320;-58
2024/04/12 00:21:38;;;;;;;5.15;1.40;;;19.30;82.70;;;;;;5488024;26;20009;-58
2024/04/12 00:24:10;;;;;;;5.20;1.58;;;19.30;82.70;;;;;;5489369;26;20013;-58
2024/04/12 00:26:36;;;;;;;4.18;1.30;;;19.30;82.70;;;;;;5510737;25;20073;-57
2024/04/12 00:29:07;;;;;;;3.95;1.30;;;19.30;82.80;;;;;;5491682;26;20015;-58
2024/04/12 00:31:42;;;;;;;4.57;1.50;;;19.30;82.80;;;;;;5492651;26;20011;-58
2024/04/12 00:34:08;;;;;;;3.30;1.23;;;19.30;82.80;;;;;;5495578;26;19994;-58
2024/04/12 00:36:36;;;;;;;4.28;1.40;;;19.30;82.80;;;;;;5497609;26;21728;-58
2024/04/12 00:39:01;;;;;;;4.68;1.50;;;19.30;82.80;;;;;;5488207;26;19998;-58
2024/04/12 00:41:29;;;;;;;4.90;1.50;;;19.30;82.80;;;;;;5494386;25;20009;-58
2024/04/12 00:43:55;;;;;;;5.03;1.58;;;19.30;82.80;;;;;;5510636;25;20403;-58
2024/04/12 00:46:24;;;;;;;4.65;1.60;;;19.30;82.80;;;;;;5513646;25;20005;-59
2024/04/12 00:48:52;;;;;;;5.20;1.33;;;19.30;82.80;;;;;;5492759;26;20014;-58
2024/04/12 00:51:19;;;;;;;4.15;1.38;;;19.30;82.90;;;;;;5496920;26;20039;-58
2024/04/12 00:53:46;;;;;;;3.95;1.25;;;19.30;82.90;;;;;;5506524;25;19989;-58
2024/04/12 00:56:15;;;;;;;4.60;1.40;;;19.30;83.00;;;;;;5494516;25;20009;-58
2024/04/12 00:58:47;;;;;;;4.13;1.40;;;19.30;83.00;;;;;;5514291;25;20001;-58
2024/04/12 01:01:16;;;;;;;3.92;1.20;;;19.30;83.00;;;;;;5514246;25;20015;-58
2024/04/12 01:03:56;;;;;;;6.38;1.52;;;19.30;83.00;;;;;;5490153;26;20012;-58
2024/04/12 01:06:29;;;;;;;4.90;1.35;;;19.30;83.10;;;;;;5529197;25;20005;-58
2024/04/12 01:08:58;;;;;;;3.33;1.20;;;19.30;83.10;;;;;;5498369;25;20047;-58
2024/04/12 01:11:27;;;;;;;5.20;1.60;;;19.30;83.10;;;;;;5496179;26;20071;-58
2024/04/12 01:13:53;;;;;;;4.28;1.63;;;19.30;83.10;;;;;;5490830;26;19997;-58
2024/04/12 01:16:21;;;;;;;4.70;1.50;;;19.30;83.10;;;;;;5491362;26;20322;-58
2024/04/12 01:18:47;;;;;;;4.78;1.55;;;19.30;83.20;;;;;;5519111;25;19997;-58
2024/04/12 01:21:13;;;;;;;4.82;1.50;;;19.30;83.20;;;;;;5494307;26;19997;-58
2024/04/12 01:23:48;;;;;;;4.93;1.58;;;19.30;83.20;;;;;;5490443;26;20005;-58
2024/04/12 01:26:17;;;;;;;4.32;1.50;;;19.30;83.20;;;;;;5525595;25;20001;-58
2024/04/12 01:28:43;;;;;;;3.20;1.30;;;19.30;83.20;;;;;;5497942;26;19994;-58
2024/04/12 01:31:17;;;;;;;5.47;1.67;;;19.30;83.20;;;;;;5503198;25;20033;-58
2024/04/12 01:33:49;;;;;;;4.97;1.50;;;19.30;83.20;;;;;;5494542;26;20002;-58
2024/04/12 01:36:21;;;;;;;4.82;1.55;;;19.30;83.10;;;;;;5506459;25;20071;-58
2024/04/12 01:38:53;;;;;;;4.55;1.52;;;19.30;83.10;;;;;;5493546;26;20881;-58
2024/04/12 01:41:32;;;;;;;4.38;1.55;;;19.30;83.10;;;;;;5495401;26;20002;-58
2024/04/12 01:44:06;;;;;;;4.68;1.60;;;19.30;83.10;;;;;;5509373;25;20073;-58
2024/04/12 01:46:34;;;;;;;4.15;1.50;;;19.30;83.10;;;;;;5490676;26;20002;-58
2024/04/12 01:49:01;;;;;;;4.47;1.50;;;19.20;83.10;;;;;;5509787;25;20009;-58
2024/04/12 01:51:30;;;;;;;5.10;1.77;;;19.20;83.10;;;;;;5508434;26;20329;-58
2024/04/12 01:53:57;;;;;;;5.28;1.45;;;19.30;83.20;;;;;;5502208;25;20009;-58
2024/04/12 01:56:23;;;;;;;4.47;1.40;;;19.20;83.10;;;;;;5504042;26;20527;-58
2024/04/12 01:58:51;;;;;;;5.05;1.60;;;19.30;83.20;;;;;;5496723;25;20016;-58
2024/04/12 02:01:19;;;;;;;4.43;1.45;;;19.20;83.10;;;;;;5496883;26;20005;-58
2024/04/12 02:03:47;;;;;;;4.05;1.45;;;19.20;83.10;;;;;;5490760;26;20349;-58
2024/04/12 02:06:15;;;;;;;4.82;1.42;;;19.20;83.10;;;;;;5501808;25;20009;-58
2024/04/12 02:08:42;;;;;;;5.55;1.60;;;19.20;83.10;;;;;;5497560;26;19994;-58
2024/04/12 02:11:08;;;;;;;4.07;1.40;;;19.20;83.10;;;;;;5496961;26;20001;-58
2024/04/12 02:13:37;;;;;;;4.25;1.50;;;19.20;83.10;;;;;;5497088;26;20009;-58
2024/04/12 02:16:04;;;;;;;4.60;1.58;;;19.20;83.20;;;;;;5495347;26;20013;-58
2024/04/12 02:18:34;;;;;;;4.85;1.60;;;19.20;83.20;;;;;;5504698;26;20012;-58
2024/04/12 02:21:06;;;;;;;5.07;1.47;;;19.20;83.20;;;;;;5489189;26;19998;-58
2024/04/12 02:23:32;;;;;;;5.00;1.50;;;19.20;83.20;;;;;;5495682;26;20018;-58
2024/04/12 02:25:59;;;;;;;5.95;1.60;;;19.20;83.20;;;;;;5501477;26;19997;-58
2024/04/12 02:28:26;;;;;;;5.05;1.50;;;19.20;83.20;;;;;;5490264;26;20002;-58
2024/04/12 02:30:54;;;;;;;3.72;1.30;;;19.20;83.20;;;;;;5495149;26;20026;-58
2024/04/12 02:33:30;;;;;;;4.80;1.50;;;19.20;83.20;;;;;;5496013;26;20016;-58
2024/04/12 02:36:03;;;;;;;3.50;1.38;;;19.20;83.20;;;;;;5506226;26;20073;-58
2024/04/12 02:38:29;;;;;;;4.45;1.55;;;19.20;83.20;;;;;;5499011;26;20094;-58
2024/04/12 02:40:58;;;;;;;5.55;1.60;;;19.20;83.20;;;;;;5504786;26;20465;-58
2024/04/12 02:43:29;;;;;;;4.32;1.45;;;19.20;83.30;;;;;;5494583;26;20009;-58
2024/04/12 02:45:57;;;;;;;4.25;1.33;;;19.20;83.30;;;;;;5499000;26;19994;-58
2024/04/12 02:48:23;;;;;;;3.97;1.30;;;19.20;83.40;;;;;;5498173;26;19998;-58
2024/04/12 02:50:56;;;;;;;4.57;1.58;;;19.20;83.40;;;;;;5505023;26;20007;-58
2024/04/12 02:53:26;;;;;;;3.88;1.42;;;19.20;83.40;;;;;;5501398;26;20011;-58
2024/04/12 02:56:14;;;;;;;4.60;1.48;;;19.20;83.50;;;;;;5501517;26;19998;-58
2024/04/12 02:58:48;;;;;;;4.25;1.25;;;19.20;83.50;;;;;;5491102;26;20479;-58
2024/04/12 03:01:21;;;;;;;4.97;1.50;;;19.20;83.50;;;;;;5488834;26;20009;-58
2024/04/12 03:03:54;;;;;;;3.60;1.40;;;19.10;83.50;;;;;;5491908;26;20012;-59
2024/04/12 03:06:31;;;;;;;5.80;1.42;;;19.20;83.60;;;;;;5502069;26;20021;-59
2024/04/12 03:09:00;;;;;;;4.38;1.50;;;19.20;83.60;;;;;;5495468;26;20002;-58
2024/04/12 03:11:33;;;;;;;4.77;1.53;;;19.20;83.70;;;;;;5492274;26;19998;-58
2024/04/12 03:14:03;;;;;;;3.85;1.52;;;19.20;83.70;;;;;;5496662;26;20436;-58
2024/04/12 03:16:32;;;;;;;3.70;1.30;;;19.20;83.80;;;;;;5490135;26;20006;-58
2024/04/12 03:18:58;;;;;;;4.22;1.48;;;19.10;83.70;;;;;;5497652;26;20330;-58
2024/04/12 03:21:27;;;;;;;4.93;1.58;;;19.20;83.80;;;;;;5489970;26;20010;-59
2024/04/12 03:23:54;;;;;;;5.53;1.52;;;19.10;83.90;;;;;;5496681;26;20013;-58
2024/04/12 03:26:27;;;;;;;5.05;1.63;;;19.10;83.90;;;;;;5491799;26;20652;-58
2024/04/12 03:28:58;;;;;;;5.18;1.63;;;19.10;84.00;;;;;;5496858;26;20045;-58
2024/04/12 03:31:27;;;;;;;4.90;1.40;;;19.10;84.10;;;;;;5497612;26;20020;-59
2024/04/12 03:33:56;;;;;;;5.17;1.70;;;19.10;84.10;;;;;;5491165;26;20002;-59
2024/04/12 03:36:26;;;;;;;4.83;1.43;;;19.10;84.10;;;;;;5497150;26;20365;-58
2024/04/12 03:41:51;;;;;;;6.05;1.50;;;19.20;84.20;;;;;;5497769;26;19993;-58
2024/04/12 03:44:20;;;;;;;4.13;1.38;;;19.20;84.20;;;;;;5492464;26;20354;-58
2024/04/12 03:46:49;;;;;;;4.95;1.40;;;19.20;84.20;;;;;;5483383;26;20026;-59
2024/04/12 03:49:22;;;;;;;5.73;1.60;;;19.20;84.10;;;;;;5496711;26;20013;-58
2024/04/12 03:51:56;;;;;;;4.07;1.40;;;19.20;84.10;;;;;;5489469;26;20336;-59
2024/04/12 03:54:23;;;;;;;4.65;1.40;;;19.20;84.10;;;;;;5498141;26;19994;-59
2024/04/12 03:56:57;;;;;;;4.95;1.30;;;19.30;84.10;;;;;;5491252;26;19998;-59
2024/04/12 03:59:25;;;;;;;4.30;1.40;;;19.30;84.10;;;;;;5497558;26;20801;-58
2024/04/12 04:01:54;;;;;;;3.85;1.50;;;19.30;84.10;;;;;;5496156;26;19998;-59
2024/04/12 04:04:25;;;;;;;3.55;1.40;;;19.30;84.10;;;;;;5484021;26;20496;-58
2024/04/12 04:06:54;;;;;;;4.55;1.40;;;19.30;84.00;;;;;;5491241;26;20083;-58
2024/04/12 04:09:21;;;;;;;4.63;1.40;;;19.30;84.00;;;;;;5492949;26;20001;-58
2024/04/12 04:11:48;;;;;;;4.70;1.42;;;19.40;84.00;;;;;;5497251;26;20230;-59
2024/04/12 04:14:19;;;;;;;4.15;1.30;;;19.30;84.00;;;;;;5495565;26;20079;-58
2024/04/12 04:16:51;;;;;;;3.90;1.40;;;19.40;84.10;;;;;;5497931;26;20440;-59
2024/04/12 04:19:31;;;;;;;3.75;1.40;;;19.30;84.00;;;;;;5486493;26;20006;-58
2024/04/12 04:24:53;;;;;;;4.88;1.50;;;19.40;84.00;;;;;;5490602;26;19999;-59
2024/04/12 04:27:22;;;;;;;4.13;1.40;;;19.40;84.00;;;;;;5492863;26;20005;-58
2024/04/12 04:29:51;;;;;;;4.05;1.30;;;19.40;84.00;;;;;;5497930;26;20010;-59
2024/04/12 04:32:20;;;;;;;4.10;1.27;;;19.40;83.90;;;;;;5492275;26;20012;-58
2024/04/12 04:34:47;;;;;;;4.25;1.40;;;19.40;83.90;;;;;;5491050;26;19994;-59
2024/04/12 04:37:14;;;;;;;4.15;1.40;;;19.40;83.90;;;;;;5496253;26;20010;-59
2024/04/12 04:39:42;;;;;;;3.90;1.40;;;19.40;84.40;;;;;;5494279;26;20001;-59
2024/04/12 04:42:08;;;;;;;4.78;1.40;;;19.40;83.90;;;;;;5489848;26;20023;-59
2024/04/12 04:44:35;;;;;;;4.03;1.40;;;19.40;83.90;;;;;;5497067;26;20002;-58
2024/04/12 04:47:03;;;;;;;3.90;1.27;;;19.40;83.90;;;;;;5503084;25;20010;-58
2024/04/12 04:49:29;;;;;;;3.85;1.40;;;19.40;83.80;;;;;;5491334;26;20484;-59
2024/04/12 04:51:55;;;;;;;4.22;1.38;;;19.40;83.80;;;;;;5486781;26;20422;-59
2024/04/12 04:54:24;;;;;;;3.80;1.38;;;19.40;83.80;;;;;;5496527;26;20002;-58
2024/04/12 04:56:49;;;;;;;4.32;1.27;;;19.40;83.90;;;;;;5497471;26;20020;-58
2024/04/12 04:59:28;;;;;;;4.10;1.30;;;19.40;84.00;;;;;;5501432;26;20036;-58
2024/04/12 05:01:54;;;;;;;4.50;1.40;;;19.40;84.00;;;;;;5499158;26;20038;-59
2024/04/12 05:04:21;;;;;;;4.30;1.38;;;19.40;84.00;;;;;;5485700;26;20036;-59
2024/04/12 05:06:52;;;;;;;3.05;1.25;;;19.40;84.10;;;;;;5498572;26;19997;-59
2024/04/12 05:09:21;;;;;;;3.60;1.27;;;19.40;84.10;;;;;;5493874;26;20410;-58
2024/04/12 05:11:50;;;;;;;3.78;1.42;;;19.40;84.20;;;;;;5497473;26;20005;-59
2024/04/12 05:15:10;;;;;;;3.72;1.40;;;19.40;84.20;;;;;;5490282;26;20002;-58
2024/04/12 05:17:10;;;;;;;3.30;1.10;;;19.40;84.20;;;;;;5478644;26;20457;-58
2024/04/12 05:19:40;;;;;;;3.78;1.40;;;19.40;84.30;;;;;;5497808;26;19994;-57
2024/04/12 05:22:06;;;;;;;;;;;19.30;84.20;;;;;;5486363;26;20066;-58
2024/04/12 05:24:35;;;;;;;3.38;1.30;;;19.30;84.30;;;;;;5495018;26;19923;-57
2024/04/12 05:27:04;;;;;;;3.97;1.38;;;19.40;84.30;;;;;;5498656;26;20012;-57
2024/04/12 05:29:30;;;;;;;5.38;1.35;;;19.40;85.10;;;;;;5495781;26;19997;-57
2024/04/12 05:32:00;;;;;;;7.40;2.72;;;19.40;85.50;;;;;;5484080;26;20006;-58
2024/04/12 05:34:26;;;;;;;5.43;1.80;;;19.50;88.00;;;;;;5482394;26;20002;-59
2024/04/12 05:37:00;;;;;;;9.00;1.50;;;19.50;87.80;;;;;;5486095;26;20002;-58
2024/04/12 05:39:26;;;;;;;4.47;1.60;;;19.50;88.10;;;;;;5495475;26;20008;-58
2024/04/12 05:41:53;;;;;;;5.93;1.40;;;19.50;87.30;;;;;;5497021;26;20002;-58
2024/04/12 05:44:19;;;;;;;3.70;1.35;;;19.50;87.90;;;;;;5483376;26;20009;-58
2024/04/12 05:46:45;;;;;;;4.60;1.55;;;19.50;87.20;;;;;;5482190;26;20368;-57
2024/04/12 05:49:33;;;;;;;3.83;1.35;;;19.50;86.70;;;;;;5494268;26;20006;-58
2024/04/12 05:52:01;;;;;;;4.20;1.30;;;19.50;86.40;;;;;;5487655;26;20013;-58
2024/04/12 05:54:33;;;;;;;3.42;1.30;;;19.50;86.10;;;;;;5487742;26;20009;-58
2024/04/12 05:57:00;;;;;;;4.50;1.27;;;19.50;85.90;;;;;;5486968;26;19995;-58
2024/04/12 05:59:25;;;;;;;3.58;1.50;;;19.60;85.80;;;;;;5484997;26;19998;-58
2024/04/12 06:01:51;;;;;;;6.40;1.30;;;19.60;85.70;;;;;;5485929;26;20071;-58
2024/04/12 06:04:19;;;;;;;4.28;1.40;;;19.60;85.90;;;;;;5481920;26;20036;-58
2024/04/12 06:06:48;;;;;;;4.00;1.30;;;19.60;85.70;;;;;;5496737;26;20340;-58
2024/04/12 06:09:21;;;;;;;4.43;1.50;;;19.60;85.60;;;;;;5492313;26;20038;-58
2024/04/12 06:11:52;;;;;;;2.95;1.10;;;19.60;85.70;;;;;;5487003;26;20610;-58
2024/04/12 06:14:21;;;;;;;3.42;1.30;;;19.60;85.90;;;;;;5495667;26;20010;-58
2024/04/12 06:16:48;;;;;;;5.68;1.38;;;19.60;86.00;;;;;;5488602;26;20013;-58
2024/04/12 06:19:14;;;;;;;4.05;1.30;;;19.70;86.10;;;;;;5495981;26;20026;-58
2024/04/12 06:21:45;;;;;;;4.47;1.20;;;19.70;86.30;;;;;;5492915;26;20038;-57
2024/04/12 06:24:13;;;;;;;4.80;1.20;;;19.70;86.10;;;;;;5493158;26;20005;-57
2024/04/12 06:26:39;;;;;;;3.83;1.30;;;19.70;86.20;;;;;;5488029;26;20013;-57
2024/04/12 06:29:09;;;;;;;3.63;1.23;;;19.70;86.30;;;;;;5486334;26;20001;-57
2024/04/12 06:31:34;;;;;;;3.33;1.33;;;19.70;86.40;;;;;;5495069;26;20348;-57
2024/04/12 06:34:05;;;;;;;3.72;1.40;;;19.70;86.10;;;;;;5490106;26;20002;-57
2024/04/12 06:36:33;;;;;;;5.07;1.27;;;19.70;86.00;;;;;;5496276;26;20226;-57
2024/04/12 06:39:04;;;;;;;3.55;1.15;;;19.70;85.90;;;;;;5500280;26;20445;-58
2024/04/12 06:41:33;;;;;;;4.20;1.25;;;19.60;86.30;;;;;;5501148;25;20032;-57
2024/04/12 06:43:59;;;;;;;3.47;1.10;;;19.60;85.70;;;;;;5498892;26;19998;-57
2024/04/12 06:46:27;;;;;;;4.30;1.35;;;19.70;85.70;;;;;;5491073;26;20042;-58
2024/04/12 06:49:07;;;;;;;4.10;1.20;;;19.60;85.50;;;;;;5498499;26;20069;-57
2024/04/12 06:52:02;;;;;;;3.70;1.10;;;19.60;85.60;;;;;;5488856;26;20079;-58
2024/04/12 06:54:24;;;;;;;3.78;1.30;;;19.60;85.70;;;;;;5511801;25;19998;-57
2024/04/12 06:56:50;;;;;;;3.13;1.23;;;19.60;85.60;;;;;;5533683;25;20011;-58
2024/04/12 06:59:18;;;;;;;4.00;1.30;;;19.60;85.60;;;;;;5524622;25;20444;-58
2024/04/12 07:01:46;;;;;;;3.65;1.25;;;19.60;85.50;;;;;;5522173;25;20000;-57
2024/04/12 07:04:12;;;;;;;3.30;1.27;;;19.60;85.50;;;;;;5528044;25;20603;-58
2024/04/12 07:06:38;;;;;;;3.47;1.10;;;19.50;85.40;;;;;;5495671;25;20013;-58
2024/04/12 07:09:08;;;;;;;4.28;1.20;;;19.60;85.30;;;;;;5493512;26;20010;-58
2024/04/12 07:11:39;;;;;;;3.70;1.10;;;19.50;85.30;;;;;;5501136;26;20004;-58
2024/04/12 07:14:05;;;;;;;2.97;1.20;;;19.50;85.30;;;;;;5492803;26;20015;-58
2024/04/12 07:16:35;;;;;;;3.72;1.33;;;19.50;85.30;;;;;;5497715;26;20006;-58
2024/04/12 07:19:08;;;;;;;3.67;1.25;;;19.50;85.30;;;;;;5502262;26;20009;-58
2024/04/12 07:21:38;;;;;;;6.20;1.48;;;19.50;85.40;;;;;;5483430;25;19998;-57
2024/04/12 07:24:03;;;;;;;3.65;1.15;;;19.50;85.60;;;;;;5494739;26;19998;-57
2024/04/12 07:26:29;;;;;;;6.20;1.20;;;19.50;85.80;;;;;;5497206;26;20016;-57
2024/04/12 07:29:00;;;;;;;3.58;1.30;;;19.50;85.80;;;;;;5491864;26;20017;-58
2024/04/12 07:31:26;;;;;;;6.40;1.58;;;19.50;86.10;;;;;;5493366;26;20342;-58
2024/04/12 07:33:54;;;;;;;6.78;1.40;;;19.50;87.00;;;;;;5499175;26;20012;-59
2024/04/12 07:36:20;;;;;;;6.20;1.27;;;19.50;88.70;;;;;;5504649;26;20019;-60
2024/04/12 07:38:49;;;;;;;8.15;1.38;;;19.50;89.10;;;;;;5501700;26;19994;-60
2024/04/12 07:41:15;;;;;;;8.87;1.50;;;19.50;89.60;;;;;;5501333;25;20432;-60
2024/04/12 07:43:43;;;;;;;4.18;1.20;;;19.50;89.30;;;;;;5504149;26;20253;-61
2024/04/12 07:46:14;;;;;;;3.85;1.20;;;19.50;88.60;;;;;;5495992;25;20010;-60
2024/04/12 07:48:48;;;;;;;5.90;1.15;;;19.50;88.00;;;;;;5497136;26;20436;-59
2024/04/12 07:51:20;;;;;;;4.28;1.30;;;19.50;87.50;;;;;;5505674;25;20008;-59
2024/04/12 07:53:48;;;;;;;4.50;1.30;;;19.50;87.50;;;;;;5502633;25;20075;-60
2024/04/12 07:56:14;;;;;;;4.68;1.17;;;19.50;87.40;;;;;;5496321;26;19998;-59
2024/04/12 07:58:50;;;;;;;4.38;1.38;;;19.50;87.40;;;;;;5507143;26;20373;-59
2024/04/12 08:01:16;;;;;;;4.30;1.17;;;19.50;87.40;;;;;;5502505;25;20497;-59
2024/04/12 08:03:56;;;;;;;4.20;1.30;;;19.50;87.50;;;;;;5502656;26;20016;-60
2024/04/12 08:06:37;;;;;;;4.00;1.10;;;19.50;87.30;;;;;;5489362;26;20058;-60
2024/04/12 08:09:03;;;;;;;2.83;1.00;;;19.50;87.20;;;;;;5501660;25;20005;-60
2024/04/12 08:11:35;;;;;;;5.30;1.20;;;19.50;87.10;;;;;;5499200;26;20009;-60
2024/04/12 08:14:06;;;;;;;5.25;1.15;;;19.50;87.00;;;;;;5500494;26;19998;-60
2024/04/12 08:16:36;;;;;;;3.53;1.15;;;19.50;87.00;;;;;;5496501;25;20005;-60
2024/04/12 08:19:13;;;;;;;4.05;1.23;;;19.50;87.00;;;;;;5526645;25;20634;-60
2024/04/12 08:21:44;;;;;;;3.50;1.10;;;19.50;87.00;;;;;;5527374;25;19996;-60
2024/04/12 08:24:14;;;;;;;6.13;1.52;;;19.50;87.00;;;;;;5512493;25;20734;-60
2024/04/12 08:26:45;;;;;;;;;;;19.50;87.50;;;;;;5499726;25;20006;-59
2024/04/12 08:29:26;;;;;;;4.45;1.23;;;19.50;87.00;;;;;;5500962;26;19924;-60
2024/04/12 08:34:36;;;;;;;2.80;1.17;;;19.50;87.00;;;;;;5490601;26;19998;-60
2024/04/12 08:37:12;;;;;;;3.42;1.13;;;19.40;87.00;;;;;;5503154;26;19997;-60
2024/04/12 08:39:52;;;;;;;4.65;1.40;;;19.40;87.10;;;;;;5492250;26;19998;-60
2024/04/12 08:42:32;;;;;;;2.42;1.02;;;19.40;87.10;;;;;;5491907;26;20011;-60
2024/04/12 08:44:59;;;;;;;3.30;1.05;;;19.50;87.20;;;;;;5502527;26;20028;-60
2024/04/12 08:47:30;;;;;;;1.52;0.90;;;19.40;87.20;;;;;;5497213;26;20009;-61
2024/04/12 08:50:13;;;;;;;3.80;1.10;;;19.50;87.20;;;;;;5508484;26;19997;-61
2024/04/12 08:52:49;;;;;;;3.40;1.08;;;19.50;87.10;;;;;;5497609;26;20016;-61
2024/04/12 08:55:20;;;;;;;3.90;1.30;;;19.50;87.10;;;;;;5491974;26;20347;-60
2024/04/12 08:58:05;;;;;;;6.50;1.20;;;19.50;87.20;;;;;;5500533;26;19998;-60
2024/04/12 09:00:34;;;;;;;3.28;1.10;;;19.50;87.20;;;;;;5490152;26;20009;-60
2024/04/12 09:03:10;;;;;;;2.58;1.00;;;19.50;87.20;;;;;;5498673;26;20005;-61
2024/04/12 09:05:39;;;;;;;3.38;1.10;;;19.50;87.20;;;;;;5488976;26;20017;-60
2024/04/12 09:08:05;;;;;;;2.57;1.00;;;19.50;87.20;;;;;;5498006;26;20037;-60
2024/04/12 09:10:35;;;;;;;2.67;1.15;;;19.50;87.20;;;;;;5496546;26;20345;-60
2024/04/12 09:13:14;;;;;;;4.05;1.00;;;19.50;87.30;;;;;;5501938;26;20008;-60
2024/04/12 09:15:45;;;;;;;3.60;1.15;;;19.50;87.40;;;;;;5495963;26;19993;-60
2024/04/12 09:18:15;;;;;;;2.13;0.90;;;19.50;87.40;;;;;;5497034;26;20504;-60
2024/04/12 09:20:52;;;;;;;3.15;1.13;;;19.50;87.40;;;;;;5499707;26;20524;-60
2024/04/12 09:23:32;;;;;;;3.38;1.25;;;19.50;87.40;;;;;;5487862;26;20044;-60
2024/04/12 09:25:59;;;;;;;3.60;1.20;;;19.50;87.40;;;;;;5489414;26;20731;-60
2024/04/12 09:28:30;;;;;;;3.10;1.00;;;19.50;87.40;;;;;;5497029;26;20008;-60
2024/04/12 09:33:50;;;;;;;1.95;1.00;;;19.50;87.90;;;;;;5492887;26;20083;-60
2024/04/12 09:36:38;;;;;;;3.42;1.00;;;19.50;87.40;;;;;;5503574;26;20325;-60
2024/04/12 09:39:14;;;;;;;4.57;1.25;;;19.50;87.40;;;;;;5516787;26;20054;-60
2024/04/12 09:41:53;;;;;;;3.20;1.20;;;19.50;87.50;;;;;;5498477;26;20080;-61
2024/04/12 09:44:27;;;;;;;3.00;1.17;;;19.50;87.50;;;;;;5502425;26;20535;-60
2024/04/12 10:37:30;;;;;;;3.35;1.38;;;19.50;88.30;;;;;;5500235;26;20046;-60
2024/04/12 10:39:59;;;;;;;4.93;1.48;;;19.60;88.40;;;;;;5496469;26;20004;-60
2024/04/12 10:42:30;;;;;;;4.70;1.42;;;19.50;88.40;;;;;;5502550;26;20344;-59
2024/04/12 10:44:58;;;;;;;4.65;1.55;;;19.50;88.50;;;;;;5498671;25;19997;-60
2024/04/12 10:47:28;;;;;;;4.63;1.45;;;19.50;88.50;;;;;;5497560;26;20002;-60
2024/04/12 10:49:57;;;;;;;4.37;1.60;;;19.60;88.60;;;;;;5502720;26;20000;-60
2024/04/12 10:52:31;;;;;;;4.53;1.45;;;19.60;88.60;;;;;;5497006;26;20270;-61
2024/04/12 10:55:01;;;;;;;6.30;1.70;;;19.60;88.70;;;;;;5499136;26;20043;-60
2024/04/12 10:57:30;;;;;;;5.20;1.60;;;19.50;88.60;;;;;;5501053;26;20008;-60
2024/04/12 11:00:01;;;;;;;3.20;1.30;;;19.60;88.60;;;;;;5508856;26;20002;-60
2024/04/12 11:02:36;;;;;;;3.60;1.40;;;19.60;88.60;;;;;;5501224;26;19998;-60
2024/04/12 11:07:49;;;;;;;4.60;1.60;;;19.60;88.70;;;;;;5498822;26;20559;-60
2024/04/12 11:10:54;;;;;;;3.78;1.50;;;19.60;88.70;;;;;;5500736;26;20005;-60
2024/04/12 11:13:16;;;;;;;5.15;1.50;;;19.60;88.80;;;;;;5486884;26;20382;-60
2024/04/12 11:32:00;;;;;;;;;;;19.60;89.20;;;;;;5505935;26;20012;-60
2024/04/12 11:34:29;;;;;;;4.68;1.60;;;19.60;89.20;;;;;;5500189;26;19923;-60
2024/04/12 11:37:05;;;;;;;5.95;1.83;;;19.70;89.30;;;;;;5506854;26;20475;-60
2024/04/12 11:39:38;;;;;;;4.80;1.88;;;19.70;89.30;;;;;;5500688;26;20006;-60
2024/04/12 11:42:05;;;;;;;3.65;1.50;;;19.70;89.90;;;;;;5505484;26;20002;-60
2024/04/12 11:44:35;;;;;;;5.38;1.80;;;19.70;89.30;;;;;;5505398;26;20379;-61
2024/04/12 11:47:03;;;;;;;;;;;19.70;89.40;;;;;;5488884;26;20006;-60
2024/04/12 11:49:45;;;;;;;4.90;1.80;;;19.70;89.40;;;;;;5490651;26;19924;-60
2024/04/12 11:52:17;;;;;;;4.40;1.60;;;19.70;89.30;;;;;;5492101;26;19994;-60
2024/04/12 11:54:51;;;;;;;4.55;1.50;;;19.80;89.40;;;;;;5499476;26;20013;-60
2024/04/12 11:57:19;;;;;;;5.35;1.90;;;19.70;89.30;;;;;;5497049;26;20008;-60
2024/04/12 11:59:46;;;;;;;5.22;1.95;;;19.80;89.40;;;;;;5505616;26;20107;-60
2024/04/12 12:02:15;;;;;;;5.70;1.90;;;19.80;89.50;;;;;;5504596;26;20022;-60
2024/04/12 12:04:43;;;;;;;4.68;1.70;;;19.80;89.50;;;;;;5484803;26;20066;-61
2024/04/12 12:07:12;;;;;;;4.55;1.80;;;19.80;89.50;;;;;;5491721;26;20611;-61
2024/04/12 12:09:37;;;;;;;6.38;1.80;;;19.80;89.50;;;;;;5502183;26;20031;-60
2024/04/12 12:12:10;;;;;;;4.57;1.77;;;19.80;89.50;;;;;;5497402;26;19998;-61
2024/04/12 12:14:36;;;;;;;4.88;1.63;;;19.80;89.50;;;;;;5496462;26;20026;-60
2024/04/12 12:17:05;;;;;;;5.95;1.85;;;19.80;89.50;;;;;;5487990;26;20405;-60
2024/04/12 12:19:32;;;;;;;5.38;1.70;;;19.90;89.60;;;;;;5493158;26;20345;-60
2024/04/12 12:21:59;;;;;;;4.30;1.48;;;19.80;89.50;;;;;;5487496;26;19998;-60
2024/04/12 12:24:25;;;;;;;4.53;1.83;;;19.80;89.40;;;;;;5489003;26;20638;-61
2024/04/12 12:26:51;;;;;;;4.40;1.70;;;19.80;89.40;;;;;;5490996;25;20048;-60
2024/04/12 12:29:18;;;;;;;4.95;1.75;;;19.90;89.60;;;;;;5494139;26;20053;-60
2024/04/12 12:31:44;;;;;;;3.33;1.48;;;19.90;89.50;;;;;;5484675;26;20012;-60
2024/04/12 12:34:11;;;;;;;5.07;1.60;;;19.90;89.40;;;;;;5492816;26;20445;-60
2024/04/12 12:36:37;;;;;;;3.83;1.50;;;19.90;89.30;;;;;;5493790;26;20096;-61
2024/04/12 12:39:03;;;;;;;5.35;1.75;;;19.90;89.30;;;;;;5488335;26;20013;-61
2024/04/12 12:41:30;;;;;;;5.15;1.70;;;19.90;89.30;;;;;;5494640;26;20029;-60
2024/04/12 12:43:57;;;;;;;5.22;1.70;;;20.00;89.30;;;;;;5503940;26;20002;-60
2024/04/12 12:46:24;;;;;;;7.10;2.00;;;20.00;89.40;;;;;;5503900;26;19993;-60
2024/04/12 12:48:52;;;;;;;5.43;1.80;;;20.00;89.50;;;;;;5509451;26;20069;-60
2024/04/12 12:51:26;;;;;;;3.92;1.58;;;20.00;89.50;;;;;;5501517;26;20042;-60
2024/04/12 12:53:53;;;;;;;3.83;1.40;;;20.00;89.50;;;;;;5501122;25;19997;-61
2024/04/12 12:56:22;;;;;;;5.10;1.65;;;20.00;89.40;;;;;;5501473;26;19999;-60
2024/04/12 12:58:50;;;;;;;4.22;1.50;;;20.00;89.40;;;;;;5505523;26;20005;-61
2024/04/12 13:01:17;;;;;;;4.60;1.67;;;20.10;89.40;;;;;;5504419;26;20081;-61
2024/04/12 13:03:45;;;;;;;4.70;1.70;;;20.10;89.30;;;;;;5496892;26;19998;-61
2024/04/12 13:06:21;;;;;;;6.05;2.03;;;20.10;89.30;;;;;;5489023;26;20010;-60
2024/04/12 13:08:50;;;;;;;4.88;1.65;;;20.10;89.30;;;;;;5492040;26;19998;-60
2024/04/12 13:11:24;;;;;;;4.93;2.00;;;20.10;89.30;;;;;;5497570;26;20025;-60
2024/04/12 13:13:50;;;;;;;5.00;1.77;;;20.10;89.30;;;;;;5483435;26;20086;-60
2024/04/12 13:16:16;;;;;;;5.47;1.83;;;20.10;89.30;;;;;;5484967;26;20013;-60
2024/04/12 13:18:45;;;;;;;4.38;1.63;;;20.10;89.30;;;;;;5488678;26;20006;-60
2024/04/12 13:21:14;;;;;;;6.07;2.10;;;20.10;89.40;;;;;;5485856;26;20468;-61
2024/04/12 13:23:40;;;;;;;5.75;2.10;;;20.10;89.40;;;;;;5482888;26;20070;-60
2024/04/12 13:26:07;;;;;;;6.10;2.20;;;20.10;89.40;;;;;;5502691;26;20073;-59
2024/04/12 13:28:36;;;;;;;7.50;2.35;;;20.10;89.50;;;;;;5489856;26;20001;-60
2024/04/12 13:31:05;;;;;;;6.97;2.50;;;20.10;89.50;;;;;;5491325;25;19994;-60
2024/04/12 13:33:31;;;;;;;7.22;2.30;;;20.10;89.50;;;;;;5489183;26;20006;-60
2024/04/12 13:35:59;;;;;;;6.70;2.30;;;20.10;89.50;;;;;;5490210;26;20550;-60
2024/04/12 13:38:27;;;;;;;5.03;1.95;;;20.10;89.60;;;;;;5493634;26;20012;-60
2024/04/12 13:41:00;;;;;;;6.28;2.22;;;20.10;89.60;;;;;;5493425;26;20066;-59
2024/04/12 13:43:27;;;;;;;6.75;2.30;;;20.10;89.60;;;;;;5494515;26;20098;-60
2024/04/12 13:51:21;;;;;;;5.72;1.98;;;20.10;89.70;;;;;;5500578;26;20076;-59
2024/04/12 13:53:51;;;;;;;7.00;2.40;;;20.10;89.70;;;;;;5500164;26;20009;-60
2024/04/12 13:56:27;;;;;;;6.78;2.17;;;20.10;89.80;;;;;;5498256;26;20030;-60
2024/04/12 13:58:55;;;;;;;9.02;2.47;;;20.10;89.80;;;;;;5500930;26;20496;-60
2024/04/12 14:01:24;;;;;;;5.28;1.63;;;20.10;89.80;;;;;;5496758;26;20009;-60
2024/04/12 14:03:53;;;;;;;5.80;2.33;;;20.10;89.70;;;;;;5496373;26;20029;-60
2024/04/12 14:06:25;;;;;;;7.80;2.27;;;20.10;89.60;;;;;;5500203;26;19997;-60
2024/04/12 14:08:52;;;;;;;6.95;2.28;;;20.10;89.60;;;;;;5500318;26;19997;-59
2024/04/12 14:11:18;;;;;;;5.65;2.05;;;20.10;89.60;;;;;;5500295;26;20347;-59
2024/04/12 14:13:45;;;;;;;5.57;2.08;;;20.10;89.50;;;;;;5507824;26;20009;-60
2024/04/12 14:16:13;;;;;;;6.43;2.10;;;20.10;89.50;;;;;;5504224;26;20028;-60
2024/04/12 14:18:39;;;;;;;7.05;2.22;;;20.10;89.60;;;;;;5501528;26;20005;-60
2024/04/12 14:21:07;;;;;;;6.78;2.60;;;20.10;89.60;;;;;;5503441;26;20035;-59
2024/04/12 14:23:33;;;;;;;6.20;2.33;;;20.10;89.60;;;;;;5493062;26;20009;-60
2024/04/12 14:25:59;;;;;;;7.30;2.17;;;20.10;89.60;;;;;;5493713;26;20086;-60
2024/04/12 14:28:24;;;;;;;6.68;2.00;;;20.20;89.60;;;;;;5493473;26;20397;-60
2024/04/12 14:30:51;;;;;;;6.30;1.90;;;20.10;89.50;;;;;;5484024;26;20070;-60